Hit Tracker is now ESPN Home Run Tracker! Hit Tracker founder Greg Rybarczyk is now collaborating with the ESPN Stats & Information Group to continue tracking all MLB home runs, and helping baseball fans know "How Far It Really Went!™" Please credit any information on this site to ESPN Stats & Information Group. For more information and analysis on home runs, please contact founder Greg Rybarczyk. E-Mail ESPN Home Run Tracker
Main Page | Ballparks | Park Overlays | Glossary | Highlight Homers | Feedback | Bio | 3 Types of HR's | AAA Home Run Derby Last Updated: September 23, 2017, 9:41 pm PST
If you want to know "How Far It Really Went!", then you've come to the right place! Welcome to the ESPN Home Run Tracker, where you can find accurate, transparently verifiable distances for every home run hit in MLB games. Please also check out the ESPN MLB Scoreboard throughout the 2017 season! Contact us at grybar@hittrackeronline.com.
Season:
Ballpark detail for Marlins Park
Ballpark # of Home Runs HR per game Avg.
True
Distance
Avg.
Speed
Off
Bat
Avg.
Std.
Dist.
Marlins Park 160 2.08 404.6 105.3 404

Scatter Plot of Home Runs Marlins Park
 Overlay Ballpark:
Without range rings   With range rings

2017 Season Home Runs for Marlins Park
Click headers to sort
Date Video Path Hitter Hitter
Team
Pitcher Pitcher
Team
INN Ballpark Type/
Luck
True
Dist.
Speed
Off
Bat
Elev.
Angle
Horiz.
Angle
Apex Impact Due To: Std.
Dist.
#
Parks
Wind ^ Temp. Alt.
04/13/17 Video View Cespedes, Yoenis NYM Urena, Jose MIA 5 Marlins Park PL 390 105.0 33.0 110.4 124 -15 1 0 403 30
05/12/17 Video View Bour, Justin MIA Foltynewicz, Mike ATL 4 Marlins Park PL 379 108.1 37.3 67.9 158 -12 4 0 387 30
05/08/17 Video View Ozuna, Marcell MIA Martinez, Carlos STL 6 Marlins Park JE 388 100.1 31.4 100.9 112 -9 1 0 396 30
05/08/17 Video View Stanton, Giancarlo MIA Socolovich, Miguel STL 9 Marlins Park JE 417 103.5 30.6 90.2 123 -8 1 0 423 28
04/13/17 Video View Cespedes, Yoenis NYM Chen, Wei-Yin MIA 3 Marlins Park ND 440 110.0 28.3 102.6 114 -7 1 0 446 30
05/10/17 Video View Bour, Justin MIA Lynn, Lance STL 1 Marlins Park PL 390 102.5 30.4 69.8 100 -7 2 0 396 30
04/13/17 Video View d'Arnaud, Travis NYM Conley, Adam MIA 16 Marlins Park PL 402 104.7 28.8 109.8 95 -4 0 0 406 30
04/13/17 Video View Flores, Wilmer NYM Chen, Wei-Yin MIA 3 Marlins Park JE 363 98.9 28.3 114.7 76 -3 0 0 366 23
05/08/17 Video View Ozuna, Marcell MIA Martinez, Carlos STL 4 Marlins Park PL 420 103.5 26.5 88.0 95 -2 1 0 422 28
05/10/17 Video View Yelich, Christian MIA Lynn, Lance STL 1 Marlins Park PL 448 108.3 25.9 88.0 102 -2 1 0 449 30
04/13/17 Video View Ozuna, Marcell MIA Gsellman, Robert NYM 1 Marlins Park JE 364 107.9 22.1 123.5 51 0 0 0 364 23
04/12/17 Video View Inciarte, Ender ATL Tazawa, Junichi MIA 8 Marlins Park PL 373 107.5 23.0 59.2 56 0 0 0 373 27
04/12/17 Video View Stanton, Giancarlo MIA Garcia, Jaime ATL 5 Marlins Park JE 392 115.5 19.6 113.5 49 0 0 0 392 29
04/12/17 Video View Freeman, Freddie ATL Koehler, Tom MIA 4 Marlins Park PL 418 103.1 31.1 84.5 119 0 1 0 417 26
04/12/17 Video View Stanton, Giancarlo MIA Garcia, Jaime ATL 3 Marlins Park JE 392 101.2 34.9 100.6 133 0 1 0 391 24
04/12/17 Video View Inciarte, Ender ATL Koehler, Tom MIA 3 Marlins Park JE 384 108.4 21.3 71.9 55 0 0 0 384 21
04/11/17 Video View Markakis, Nick ATL Straily, Dan MIA 4 Marlins Park JE 390 100.2 28.7 75.2 90 0 0 0 390 27
04/11/17 Video View Ozuna, Marcell MIA Foltynewicz, Mike ATL 5 Marlins Park PL 393 104.4 35.2 108.7 136 0 0 0 393 30
04/11/17 Video View Ozuna, Marcell MIA Colon, Bartolo ATL 3 Marlins Park PL 411 107.3 25.3 71.9 78 0 0 0 411 30
04/14/17 Video View Duda, Lucas NYM Volquez, Edinson MIA 5 Marlins Park PL 448 109.3 23.7 92.4 87 0 0 0 448 30
04/15/17 Video View Bour, Justin MIA deGrom, Jacob NYM 2 Marlins Park PL 350 97.6 37.6 64.9 124 0 1 0 349 20
04/15/17 Video View Ozuna, Marcell MIA deGrom, Jacob NYM 2 Marlins Park ND 430 109.4 30.3 110.7 112 0 1 0 429 30
04/15/17 Video View Cabrera, Asdrubal NYM Tazawa, Junichi MIA 8 Marlins Park PL 368 100.9 36.4 63.9 124 0 1 0 367 29
04/15/17 Video View Yelich, Christian MIA Salas, Fernando NYM 8 Marlins Park PL 403 104.4 34.4 76.0 136 0 1 0 402 30
04/15/17 Video View Stanton, Giancarlo MIA Salas, Fernando NYM 8 Marlins Park PL 441 113.5 18.8 90.3 63 0 0 0 441 29
04/16/17 Video View Riddle, J.T. MIA Reed, Addison NYM 9 Marlins Park PL 419 104.6 26.0 81.0 88 0 0 0 419 29
04/28/17 Video View Mercer, Jordy PIT Conley, Adam MIA 1 Marlins Park PL 400 103.9 25.3 104.6 76 0 1 0 399 30
04/29/17 Video View Jaso, John PIT Ramos, A.J. MIA 9 Marlins Park PL 404 101.4 29.1 79.2 99 0 0 0 404 28
04/30/17 Video View Bell, Josh PIT Koehler, Tom MIA 1 Marlins Park PL 419 104.7 28.2 77.7 98 0 1 0 418 29
04/30/17 Video View Bour, Justin MIA Hudson, Daniel PIT 7 Marlins Park ND 394 104.4 29.3 62.6 88 0 1 0 394 30
05/01/17 Video View Ozuna, Marcell MIA Odorizzi, Jake TB 4 Marlins Park PL 389 109.0 22.2 111.8 58 0 1 0 388 30
05/02/17 Video View Morrison, Logan TB Volquez, Edinson MIA 3 Marlins Park ND 396 111.1 23.8 57.9 63 0 0 0 396 30
05/12/17 Video View Flowers, Tyler ATL Urena, Jose MIA 2 Marlins Park JE/L 398 109.6 20.6 102.9 56 0 0 0 398 20
05/12/17 Video View Realmuto, J.T. MIA Krol, Ian ATL 7 Marlins Park JE 383 107.9 23.0 115.5 59 0 1 0 382 30
05/12/17 Video View Dietrich, Derek MIA Johnson, Jim ATL 9 Marlins Park PL 428 108.0 22.3 84.9 74 0 0 0 428 26
05/13/17 Video View Bour, Justin MIA O'Flaherty, Eric ATL 7 Marlins Park PL 402 103.0 31.8 71.5 111 0 2 0 399 30
05/14/17 Video View Moore, Tyler MIA Dickey, R.A. ATL 7 Marlins Park JE 409 108.0 21.1 98.7 62 0 0 0 408 21
05/15/17 Video View Gurriel, Yulieski HOU Tazawa, Junichi MIA 6 Marlins Park PL 382 110.3 21.9 117.8 54 0 0 0 382 30
05/15/17 Video View Bour, Justin MIA Gregerson, Luke HOU 8 Marlins Park ND 445 111.0 23.8 80.5 84 0 1 0 445 30
05/15/17 Video View Altuve, Jose HOU McGowan, Dustin MIA 9 Marlins Park PL 435 106.2 30.1 97.3 119 0 1 0 433 30
05/16/17 Video View Marisnick, Jake HOU Koehler, Tom MIA 3 Marlins Park PL 447 111.1 22.2 95.1 78 0 0 0 446 30
05/16/17 Video View Marisnick, Jake HOU Wittgren, Nick MIA 5 Marlins Park JE 415 107.5 21.1 95.4 65 0 0 0 415 20
05/26/17 Video View Stanton, Giancarlo MIA Chavez, Jesse LAA 1 Marlins Park ND 462 111.1 24.1 90.4 93 0 1 0 461 30
05/26/17 Video View Realmuto, J.T. MIA Chavez, Jesse LAA 1 Marlins Park PL 371 98.6 29.1 67.7 82 0 1 0 370 23
05/26/17 Video View Bour, Justin MIA Alvarez, Jose LAA 6 Marlins Park ND 400 107.8 25.9 62.2 73 0 1 0 399 30
05/26/17 Video View Maldonado, Martin LAA Straily, Dan MIA 6 Marlins Park JE 415 103.4 24.2 90.4 80 0 0 0 415 21
05/26/17 Video View Fontana, Nolan LAA Barraclough, Kyle MIA 9 Marlins Park JE 410 101.6 27.2 84.8 92 0 1 0 409 18
05/27/17 Video View Trout, Mike LAA Worley, Vance MIA 1 Marlins Park ND 456 114.6 26.2 108.6 95 0 1 0 454 30
05/27/17 Video View Ozuna, Marcell MIA Norris, Bud LAA 9 Marlins Park JE 347 97.2 28.1 58.0 67 0 0 0 347 17
05/28/17 Video View Stanton, Giancarlo MIA Shoemaker, Matt LAA 1 Marlins Park PL 408 102.8 32.1 102.2 119 0 2 0 406 30
05/28/17 Video View Maldonado, Martin LAA Urena, Jose MIA 4 Marlins Park ND 408 106.7 31.2 118.3 102 0 2 0 406 30
05/28/17 Video View Riddle, J.T. MIA Shoemaker, Matt LAA 5 Marlins Park JE 396 109.6 21.4 73.3 58 0 1 0 396 26
05/29/17 Video View Dietrich, Derek MIA Hellickson, Jeremy PHI 6 Marlins Park PL 362 98.3 36.6 69.6 125 0 2 0 360 19
05/30/17 Video View Ozuna, Marcell MIA Velasquez, Vince PHI 2 Marlins Park PL 405 104.1 29.7 110.1 98 0 1 0 404 30
05/30/17 Video View Stanton, Giancarlo MIA Leiter Jr., Mark PHI 3 Marlins Park JE 385 103.2 24.2 73.7 67 0 1 0 385 23
05/30/17 Video View Kendrick, Howard PHI McGowan, Dustin MIA 4 Marlins Park JE 418 103.7 25.3 85.6 85 0 1 0 418 23
05/31/17 Video View Ozuna, Marcell MIA Nola, Aaron PHI 1 Marlins Park JE 353 99.0 26.9 59.0 65 0 1 0 352 18
05/31/17 Video View Bour, Justin MIA Pinto, Ricardo PHI 5 Marlins Park PL 400 101.2 32.0 78.2 115 0 1 0 399 29
05/31/17 Video View Bour, Justin MIA Gomez, Jeanmar PHI 6 Marlins Park ND 400 105.5 31.9 60.6 104 0 1 0 399 30
06/02/17 Video View Yelich, Christian MIA Corbin, Patrick ARI 1 Marlins Park PL 408 103.6 31.3 74.9 113 0 1 0 407 30
06/02/17 Video View Bour, Justin MIA Corbin, Patrick ARI 1 Marlins Park JE 414 106.7 22.5 98.1 70 0 0 0 414 26
06/02/17 Video View Iannetta, Chris ARI Urena, Jose MIA 5 Marlins Park PL 396 100.4 30.4 103.0 102 0 1 0 395 30
06/02/17 Video View Stanton, Giancarlo MIA Corbin, Patrick ARI 5 Marlins Park PL 354 95.8 33.6 63.2 96 0 1 0 353 22
06/02/17 Video View Goldschmidt, Paul ARI Urena, Jose MIA 3 Marlins Park PL 380 99.1 30.2 109.1 92 0 1 0 379 26
06/04/17 Video View Moore, Tyler MIA Shipley, Braden ARI 2 Marlins Park PL 400 101.0 30.4 102.0 104 0 0 0 400 30
06/13/17 Video View Ozuna, Marcell MIA Cotton, Jharel OAK 4 Marlins Park PL 407 103.5 33.0 76.0 124 0 2 0 405 30
06/13/17 Video View Stanton, Giancarlo MIA Cotton, Jharel OAK 5 Marlins Park PL 394 103.5 36.0 102.8 144 0 3 0 391 30
06/14/17 Video View Healy, Ryon OAK Volquez, Edinson MIA 2 Marlins Park PL 427 105.1 25.8 84.3 90 0 1 0 426 26
06/14/17 Video View Ozuna, Marcell MIA Gossett, Daniel OAK 2 Marlins Park JE 411 102.3 32.7 95.4 127 0 1 0 409 24
06/14/17 Video View Moore, Tyler MIA Gossett, Daniel OAK 2 Marlins Park PL 366 98.3 30.7 117.3 86 0 1 0 365 28
06/19/17 Video View Harper, Bryce WSH Nicolino, Justin MIA 1 Marlins Park JE 400 113.7 19.2 76.1 51 0 0 0 400 24
06/19/17 Video View Rendon, Anthony WSH Nicolino, Justin MIA 2 Marlins Park JE 407 101.2 31.9 95.8 119 0 1 0 406 20
06/19/17 Video View Bour, Justin MIA Roark, Tanner WSH 3 Marlins Park PL 416 111.4 22.5 72.8 66 0 0 0 416 30
06/19/17 Video View Stanton, Giancarlo MIA Turner, Jacob WSH 7 Marlins Park JE 390 100.9 27.2 75.1 82 0 1 0 390 27
06/20/17 Video View Ozuna, Marcell MIA Gonzalez, Gio WSH 5 Marlins Park ND 438 110.8 25.6 105.7 88 0 1 0 437 30
06/20/17 Video View Murphy, Daniel WSH Wittgren, Nick MIA 8 Marlins Park PL 372 103.9 38.0 69.4 149 0 2 0 370 29
06/21/17 Video View Raburn, Ryan WSH Straily, Dan MIA 5 Marlins Park PL 376 101.6 35.2 117.5 117 0 1 0 375 30
06/22/17 Video View Ozuna, Marcell MIA Arrieta, Jake CHC 2 Marlins Park ND 448 118.3 24.0 115.4 77 0 1 -1 448 30
06/22/17 Video View Bryant, Kris CHC Locke, Jeff MIA 4 Marlins Park ND 437 109.0 26.3 103.3 93 0 1 0 436 30
06/22/17 Video View Russell, Addison CHC McGowan, Dustin MIA 5 Marlins Park ND 426 106.5 29.2 104.4 107 0 2 0 425 30
06/22/17 Video View Contreras, Willson CHC Tazawa, Junichi MIA 6 Marlins Park PL 383 100.2 32.8 110.4 108 0 2 0 382 30
06/23/17 Video View Stanton, Giancarlo MIA Lackey, John CHC 3 Marlins Park ND 457 113.8 21.0 94.1 75 0 1 0 456 30
06/24/17 Video View Realmuto, J.T. MIA Lester, Jon CHC 1 Marlins Park PL 418 104.6 30.2 103.1 110 0 1 0 417 30
06/25/17 Video View Stanton, Giancarlo MIA Strop, Pedro CHC 7 Marlins Park JE 364 105.2 23.6 122.5 56 0 1 0 363 24
06/27/17 Video View Granderson, Curtis NYM Straily, Dan MIA 1 Marlins Park ND 409 108.9 29.0 55.9 88 0 1 0 408 30
06/27/17 Video View d'Arnaud, Travis NYM Barraclough, Kyle MIA 7 Marlins Park JE 392 102.2 25.7 104.9 75 0 0 0 392 27
06/28/17 Video View Cabrera, Asdrubal NYM Locke, Jeff MIA 1 Marlins Park PL 396 104.1 24.7 105.3 72 0 0 0 396 30
06/28/17 Video View Granderson, Curtis NYM Nicolino, Justin MIA 7 Marlins Park PL 424 110.4 23.3 75.3 73 0 1 0 424 30
06/29/17 Video View Stanton, Giancarlo MIA Lugo, Seth NYM 4 Marlins Park PL 388 101.4 30.7 112.6 96 0 1 0 387 30
07/14/17 Video View Puig, Yasiel LAD Straily, Dan MIA 5 Marlins Park ND 438 110.5 28.5 109.4 103 0 1 0 436 30
07/14/17 Video View Seager, Corey LAD Straily, Dan MIA 5 Marlins Park PL 404 105.0 27.7 69.2 86 0 0 0 404 30
07/14/17 Video View Puig, Yasiel LAD Ramos, A.J. MIA 9 Marlins Park JE 410 102.3 26.4 97.0 87 0 0 0 409 21
07/15/17 Video View Bellinger, Cody LAD Urena, Jose MIA 3 Marlins Park PL 410 105.8 25.6 74.2 79 0 0 0 409 30
07/15/17 Video View Grandal, Yasmani LAD Urena, Jose MIA 3 Marlins Park PL 376 101.0 33.5 59.9 103 0 1 0 375 30
07/16/17 Video View Turner, Justin LAD O'Grady, Chris MIA 1 Marlins Park JE 390 99.4 30.8 103.2 102 0 1 0 389 25
07/17/17 Video View Stanton, Giancarlo MIA Eickhoff, Jerad PHI 1 Marlins Park ND 451 118.6 26.4 122.9 87 0 1 0 450 30
07/17/17 Video View Stanton, Giancarlo MIA Eickhoff, Jerad PHI 5 Marlins Park JE 383 102.2 36.9 103.5 145 0 2 0 380 22
07/17/17 Video View Bour, Justin MIA Eickhoff, Jerad PHI 5 Marlins Park ND 447 111.6 24.7 77.8 88 0 1 0 446 30
07/18/17 Video View Stanton, Giancarlo MIA Velasquez, Vince PHI 1 Marlins Park ND 438 108.7 25.6 100.5 91 0 1 0 437 30
07/18/17 Video View Franco, Maikel PHI McGowan, Dustin MIA 8 Marlins Park PL 406 104.5 26.4 106.0 82 0 1 0 405 30
07/18/17 Video View Williams, Nick PHI Garcia, Jarlin MIA 9 Marlins Park PL 404 102.4 26.6 101.2 85 0 0 0 404 30
07/19/17 Video View Stanton, Giancarlo MIA Pivetta, Nick PHI 1 Marlins Park ND 470 111.8 26.9 93.4 114 0 1 0 469 30
07/19/17 Video View Yelich, Christian MIA Pivetta, Nick PHI 6 Marlins Park JE 403 100.7 28.8 97.9 97 0 1 0 403 20
07/27/17 Video View Dietrich, Derek MIA Stephenson, Robert CIN 4 Marlins Park PL 411 102.2 31.9 82.5 120 0 2 0 409 27
07/28/17 Video View Duvall, Adam CIN Worley, Vance MIA 1 Marlins Park PL 398 104.6 28.2 114.6 84 0 1 0 396 30
07/28/17 Video View Realmuto, J.T. MIA Peralta, Wandy CIN 7 Marlins Park ND 414 108.1 31.7 118.9 108 0 2 0 411 30
07/28/17 Video View Schebler, Scott CIN Tazawa, Junichi MIA 9 Marlins Park ND 433 110.4 30.1 66.9 109 0 2 0 430 30
07/28/17 Video View Aviles, Mike MIA Storen, Drew CIN 7 Marlins Park JE 359 98.8 29.0 121.8 74 0 1 0 358 28
07/29/17 Video View Votto, Joey CIN Conley, Adam MIA 1 Marlins Park PL 426 103.7 29.1 86.4 109 0 1 0 424 29
07/29/17 Video View Yelich, Christian MIA Adleman, Tim CIN 3 Marlins Park JE 403 101.2 28.4 100.7 94 0 1 0 402 28
07/29/17 Video View Duvall, Adam CIN Conley, Adam MIA 4 Marlins Park PL 381 103.9 36.6 114.4 135 0 3 0 378 30
07/30/17 Video View Ozuna, Marcell MIA Iglesias, Raisel CIN 9 Marlins Park ND 481 116.9 23.6 98.7 94 0 1 0 480 30
08/01/17 Video View Scherzer, Max WSH O'Grady, Chris MIA 2 Marlins Park PL 393 101.9 31.1 110.4 101 0 1 0 393 30
08/01/17 Video View Kendrick, Howard WSH O'Grady, Chris MIA 2 Marlins Park JE 411 102.4 27.7 99.0 94 0 1 0 410 29
08/01/17 Video View Ozuna, Marcell MIA Albers, Matt WSH 5 Marlins Park PL 395 102.9 30.0 112.2 95 0 1 0 395 30
08/02/17 Video View Yelich, Christian MIA Cole, A.J. WSH 5 Marlins Park PL 419 103.6 32.4 85.8 129 0 2 0 417 25
08/02/17 Video View Dietrich, Derek MIA Cole, A.J. WSH 5 Marlins Park PL 374 101.4 36.5 68.3 132 0 2 0 372 29
08/11/17 Video View Arenado, Nolan COL Urena, Jose MIA 3 Marlins Park JE 407 106.8 22.6 78.7 67 0 0 0 407 28
08/11/17 Video View Parra, Gerardo COL Urena, Jose MIA 6 Marlins Park PL 398 102.0 34.0 77.5 128 0 2 0 396 29
08/11/17 Video View Stanton, Giancarlo MIA Gray, Jon COL 6 Marlins Park ND 436 112.7 24.2 108.1 79 0 1 0 435 30
08/12/17 Video View Stanton, Giancarlo MIA Hoffman, Jeff COL 4 Marlins Park ND 466 118.1 24.1 108.0 86 0 1 0 464 30
08/13/17 Video View Stanton, Giancarlo MIA Marquez, German COL 3 Marlins Park PL 365 98.4 31.6 60.6 88 0 1 0 364 28
08/14/17 Video View Stanton, Giancarlo MIA Blach, Ty SF 1 Marlins Park PL 377 99.9 30.1 114.9 87 0 1 0 375 29
08/14/17 Video View Ozuna, Marcell MIA Blach, Ty SF 5 Marlins Park ND 458 109.9 25.5 92.0 100 0 1 0 457 30
08/15/17 Video View Stanton, Giancarlo MIA Bumgarner, Madison SF 3 Marlins Park PL 435 106.2 28.7 98.1 109 0 2 0 433 30
08/15/17 Video View Span, Denard SF Straily, Dan MIA 3 Marlins Park JE 384 99.0 28.7 74.8 86 0 1 0 383 23
08/15/17 Video View Ellis, A.J. MIA Bumgarner, Madison SF 4 Marlins Park JE 379 101.2 36.8 104.8 140 0 3 0 376 21
08/15/17 Video View Jones, Ryder SF Barraclough, Kyle MIA 8 Marlins Park PL 376 101.0 33.1 58.3 99 0 2 0 374 30
08/25/17 Video View Stanton, Giancarlo MIA Wood, Travis SD 1 Marlins Park ND 452 115.8 28.0 116.6 100 0 1 0 451 30
08/25/17 Video View Stanton, Giancarlo MIA Wood, Travis SD 3 Marlins Park PL 404 101.3 30.4 79.2 106 0 1 0 403 28
08/25/17 Video View Asuaje, Carlos SD Conley, Adam MIA 4 Marlins Park PL 396 103.3 27.9 69.2 85 0 1 0 395 30
08/25/17 Video View Blash, Jabari SD McGowan, Dustin MIA 6 Marlins Park PL 441 109.5 24.0 98.0 84 0 1 0 441 30
08/25/17 Video View Ozuna, Marcell MIA Yates, Kirby SD 7 Marlins Park ND 418 108.1 31.4 114.9 111 0 1 0 416 30
08/26/17 Video View Ozuna, Marcell MIA Lamet, Dinelson SD 4 Marlins Park ND 449 112.2 21.7 95.3 77 0 1 0 449 30
08/27/17 Video View Richard, Clayton SD Straily, Dan MIA 5 Marlins Park JE 351 100.2 26.3 55.4 62 0 1 0 351 26
08/27/17 Video View Stanton, Giancarlo MIA Richard, Clayton SD 8 Marlins Park JE 424 110.8 18.8 89.7 59 0 0 0 424 25
08/27/17 Video View Dietrich, Derek MIA Capps, Carter SD 8 Marlins Park JE 354 98.4 28.1 58.9 69 0 1 0 353 20
09/02/17 Video View Stanton, Giancarlo MIA Nola, Aaron PHI 1 Marlins Park ND 452 109.6 30.5 96.7 131 0 2 0 450 30
09/02/17 Video View Ozuna, Marcell MIA Nola, Aaron PHI 1 Marlins Park PL 392 102.4 32.2 113.1 106 0 2 0 390 30
09/02/17 Video View Hoskins, Rhys PHI Straily, Dan MIA 4 Marlins Park JE 409 101.6 26.8 96.0 89 0 1 0 408 20
09/02/17 Video View Joseph, Tommy PHI Straily, Dan MIA 5 Marlins Park PL 397 110.5 23.9 120.1 64 0 1 0 397 30
09/02/17 Video View Dietrich, Derek MIA Pinto, Ricardo PHI 7 Marlins Park JE 420 103.9 24.5 90.4 82 0 0 0 419 25
09/04/17 Video View Rendon, Anthony WSH Conley, Adam MIA 2 Marlins Park PL 393 102.4 26.0 105.4 77 0 1 0 392 28
09/04/17 Video View Murphy, Daniel WSH Conley, Adam MIA 3 Marlins Park JE 398 105.5 23.6 75.3 68 0 0 0 398 28
09/04/17 Video View Stanton, Giancarlo MIA Cole, A.J. WSH 5 Marlins Park PL 350 95.9 35.9 61.0 106 0 2 0 348 24
09/05/17 Video View Murphy, Daniel WSH Barraclough, Kyle MIA 8 Marlins Park PL 381 109.7 22.9 57.4 57 0 1 0 381 30
09/06/17 Video View Zimmerman, Ryan WSH Peters, Dillon MIA 4 Marlins Park ND 438 107.6 28.3 79.2 107 0 2 0 436 29
09/06/17 Video View Taylor, Michael WSH Tazawa, Junichi MIA 8 Marlins Park PL 418 106.7 26.2 105.7 85 0 1 0 417 30
09/18/17 Video View Stanton, Giancarlo MIA Harvey, Matt NYM 4 Marlins Park PL 451 117.6 18.1 93.8 60 0 0 0 450 30
09/18/17 Video View Ozuna, Marcell MIA Rhame, Jacob NYM 7 Marlins Park JE 388 107.7 21.8 107.4 57 0 0 0 388 24
09/19/17 Video View Reyes, Jose NYM Despaigne, Odrisamer MIA 1 Marlins Park PL 399 106.5 25.5 67.3 73 0 1 0 398 30
09/19/17 Video View Yelich, Christian MIA Lugo, Seth NYM 4 Marlins Park PL 363 97.9 34.9 115.6 109 0 2 0 361 27
09/19/17 Video View d'Arnaud, Travis NYM Despaigne, Odrisamer MIA 6 Marlins Park PL 426 103.7 27.3 90.0 99 0 1 0 425 28
09/19/17 Video View Bour, Justin MIA Ramos, A.J. NYM 9 Marlins Park JE 404 102.6 25.5 80.5 80 0 0 0 404 27
09/19/17 Video View Realmuto, J.T. MIA Sewald, Paul NYM 10 Marlins Park PL 373 103.3 25.8 119.2 66 0 1 0 372 30
09/20/17 Video View Bour, Justin MIA Montero, Rafael NYM 3 Marlins Park PL 424 107.6 21.8 85.6 70 0 0 0 423 24
09/20/17 Video View Nimmo, Brandon NYM Urena, Jose MIA 7 Marlins Park PL 361 99.1 29.8 56.6 77 0 1 0 360 29
09/20/17 Video View Ellis, A.J. MIA Goeddel, Erik NYM 8 Marlins Park JE 373 98.1 30.0 110.5 87 0 1 0 372 20
09/20/17 Video View Stanton, Giancarlo MIA Goeddel, Erik NYM 8 Marlins Park JE 398 114.2 19.8 108.3 52 0 0 0 398 30
09/20/17 Video View Rojas, Miguel MIA Goeddel, Erik NYM 8 Marlins Park PL 370 100.7 35.6 119.8 115 0 2 0 368 30


About HitTracker | Contact Us
© 2006-2017 HitTrackerOnline